Aérodrome :
LOGIN :

S'inscrire | Disclaimer

   EN    FR    IT 

 










Légende :    VFR   VFR Marginal   IFR   IFR Intensif   IFR Très Intensif
Visi : 
Plafond : 
>= 8 km
>= 3000ft
5 à 8 km
1000 à 3000 ft
1500m à 5 km
500 à 1000 ft
800 à 1500m
200 à 500 ft
< 800m
< 200 ft
Symboles :   Orages  Brouillard  Fortes neiges  Fortes précipitations  Vent > 20 kt
SIGMETs :   Divers  Orages  Givrage  Turbulence  Onde Orograph.  Cendres Volcan.






- Altitude de l'aérodrome : 463 ft
- Code IATA : HME


DAUH - Oued Irara-Krim Belkacem

DERNIER METAR :
  • 050300Z 32025KT 1500 BLSA NSC 30/05 Q1006

METARs EXPIRÉS :
  • 050230Z 32023KT 2000 BLSA NSC 30/08 Q1005
  • 050200Z 32025KT 2000 BLSA NSC 30/08 Q1004
  • 050130Z 31023KT 3000 DRSA NSC 30/09 Q1004
  • 050100Z 31017KT 7000 SA NSC 30/09 Q1004
  • 050030Z 00000KT CAVOK 30/10 Q1003

TAF TAF DAUH
Valide du 05 à 00h jusqu'au 06 à 00h UTC


042300Z 0500/0524 34012KT CAVOK
BECMG 0500/0503 04022KT 3000 DRSA
TEMPO 0503/0507 04022G32KT 1500 BLSA
BECMG 0512/0515 34010KT



MET'MAP, la Météo Aéronautique d'un coup d'oeil ! - Copyright ORBIFLY Décembre 2007 - Disclaimer

ORBIFLY MET'MAP TEAM :

Programmation & Développement : Alexandra Zaïnal
Sur une idée originale de : Baudouin d'Aumeries
Assistance à la programmation : Marc-Olivier Méhu
Soutien technique & logistique : Manuel Goepfert

Contact : metmap@orbifly.com




SOURCES & CREDITS :

   NOAA